createdAt,value
2022-10-09T00:01:10.154Z,6.20
2022-10-09T00:03:38.131Z,6.07
2022-10-09T00:06:06.224Z,6.13
2022-10-09T00:08:35.053Z,6.12
2022-10-09T00:11:06.212Z,6.11
2022-10-09T00:13:32.614Z,6.10
2022-10-09T00:16:03.983Z,6.16
2022-10-09T00:18:30.619Z,6.19
2022-10-09T00:20:57.011Z,6.15
2022-10-09T00:23:23.708Z,6.12
2022-10-09T00:25:58.125Z,6.10
2022-10-09T00:28:27.242Z,6.06
2022-10-09T00:30:54.121Z,6.02
2022-10-09T00:33:20.692Z,6.02
2022-10-09T00:35:48.115Z,5.96
2022-10-09T00:38:14.558Z,5.83
2022-10-09T00:40:41.397Z,5.94
2022-10-09T00:43:18.860Z,5.91
2022-10-09T00:45:53.702Z,5.91
2022-10-09T00:48:20.989Z,5.84
2022-10-09T00:50:58.057Z,5.94
2022-10-09T00:53:28.784Z,5.89
2022-10-09T00:55:55.811Z,6.01
2022-10-09T00:58:23.499Z,5.96
2022-10-09T01:00:50.121Z,5.89
2022-10-09T01:03:16.721Z,5.83
2022-10-09T01:06:24.540Z,5.83
2022-10-09T01:09:24.370Z,5.78
2022-10-09T01:12:08.970Z,5.70
2022-10-09T01:14:48.472Z,5.64
2022-10-09T01:17:25.155Z,5.63
2022-10-09T01:20:16.390Z,5.60
2022-10-09T01:23:01.112Z,5.57
2022-10-09T01:25:45.254Z,5.55
2022-10-09T01:28:14.564Z,5.52
2022-10-09T01:30:42.196Z,5.52
2022-10-09T01:33:10.974Z,5.51
2022-10-09T01:35:38.536Z,5.52
2022-10-09T01:38:06.028Z,5.46
2022-10-09T01:40:32.597Z,5.46
2022-10-09T01:42:59.420Z,5.49
2022-10-09T01:45:26.039Z,5.50
2022-10-09T01:47:52.464Z,5.56
2022-10-09T01:50:30.279Z,5.58
2022-10-09T01:53:01.584Z,5.50
2022-10-09T01:55:39.170Z,5.55
2022-10-09T01:58:15.410Z,5.58
2022-10-09T02:00:56.848Z,5.58
2022-10-09T02:03:26.107Z,5.56
2022-10-09T02:05:55.520Z,5.51
2022-10-09T02:08:23.351Z,5.50
2022-10-09T02:10:55.082Z,5.49
2022-10-09T02:13:21.963Z,5.44
2022-10-09T02:15:53.387Z,5.42
2022-10-09T02:18:26.533Z,5.46
2022-10-09T02:20:59.442Z,5.50
2022-10-09T02:23:27.471Z,5.51
2022-10-09T02:25:54.036Z,5.50
2022-10-09T02:28:21.755Z,5.50
2022-10-09T02:30:59.586Z,5.44
2022-10-09T02:33:33.607Z,5.48
2022-10-09T02:36:00.872Z,5.47
2022-10-09T02:38:27.559Z,5.51
2022-10-09T02:40:58.272Z,5.48
2022-10-09T02:43:24.670Z,5.44
2022-10-09T02:45:51.331Z,5.42
2022-10-09T02:48:17.980Z,5.40
2022-10-09T02:50:44.325Z,5.48
2022-10-09T02:53:10.735Z,5.41
2022-10-09T02:55:37.061Z,5.46
2022-10-09T02:58:03.830Z,5.50
2022-10-09T03:00:30.242Z,5.55
2022-10-09T03:02:57.975Z,5.56
2022-10-09T03:05:24.714Z,5.54
2022-10-09T03:07:51.141Z,5.51
2022-10-09T03:10:19.420Z,5.51
2022-10-09T03:12:46.212Z,5.55
2022-10-09T03:15:14.639Z,5.60
2022-10-09T03:17:41.344Z,5.60
2022-10-09T03:20:08.343Z,5.66
2022-10-09T03:22:34.750Z,5.66
2022-10-09T03:25:01.276Z,5.59
2022-10-09T03:27:27.936Z,5.56
2022-10-09T03:29:54.627Z,5.54
2022-10-09T03:35:07.196Z,5.52
2022-10-09T03:37:33.665Z,5.59
2022-10-09T03:40:00.105Z,5.60
2022-10-09T03:42:26.531Z,5.62
2022-10-09T03:44:52.939Z,5.62
2022-10-09T03:47:19.334Z,5.63
2022-10-09T03:49:45.676Z,5.64
2022-10-09T03:52:11.997Z,5.65
2022-10-09T03:54:38.297Z,5.62
2022-10-09T03:57:04.695Z,5.56
2022-10-09T03:59:31.057Z,5.62
2022-10-09T04:01:57.461Z,5.56
2022-10-09T04:04:23.923Z,5.56
2022-10-09T04:06:50.261Z,5.60
2022-10-09T04:09:16.584Z,5.58
2022-10-09T04:11:43.253Z,5.57
2022-10-09T04:14:09.576Z,5.56
2022-10-09T04:16:35.937Z,5.61
2022-10-09T04:19:02.620Z,5.64
2022-10-09T04:21:29.340Z,5.57
2022-10-09T04:23:55.756Z,5.57
2022-10-09T04:26:22.131Z,5.60
2022-10-09T04:28:48.482Z,5.61
2022-10-09T04:31:14.997Z,5.64
2022-10-09T04:33:41.330Z,5.61
2022-10-09T04:36:08.002Z,5.59
2022-10-09T04:38:34.518Z,5.61
2022-10-09T04:41:06.588Z,5.55
2022-10-09T04:43:34.455Z,5.52
2022-10-09T04:46:05.485Z,5.51
2022-10-09T04:48:32.010Z,5.47
2022-10-09T04:50:58.345Z,5.47
2022-10-09T04:53:24.793Z,5.54
2022-10-09T04:55:51.408Z,5.45
2022-10-09T04:58:17.751Z,5.50
2022-10-09T05:00:45.726Z,5.53
2022-10-09T05:03:12.770Z,5.53
2022-10-09T05:05:39.606Z,5.63
2022-10-09T05:08:06.187Z,5.63
2022-10-09T05:10:33.915Z,5.42
2022-10-09T05:13:00.567Z,5.51
2022-10-09T05:15:27.624Z,5.53
2022-10-09T05:17:54.257Z,5.59
2022-10-09T05:20:20.663Z,5.52
2022-10-09T05:22:48.094Z,5.47
2022-10-09T05:25:15.375Z,5.45
2022-10-09T05:27:42.014Z,5.39
2022-10-09T05:30:09.627Z,5.45
2022-10-09T05:32:36.217Z,5.41
2022-10-09T05:35:02.817Z,5.42
2022-10-09T05:37:29.218Z,5.44
2022-10-09T05:39:55.540Z,5.42
2022-10-09T05:42:21.856Z,5.41
2022-10-09T05:44:48.247Z,5.46
2022-10-09T05:47:14.762Z,5.42
2022-10-09T05:49:41.118Z,5.55
2022-10-09T05:52:07.864Z,5.48
2022-10-09T05:54:34.426Z,5.50
2022-10-09T05:57:01.030Z,5.49
2022-10-09T05:59:27.420Z,5.49
2022-10-09T06:01:53.876Z,5.51
2022-10-09T06:04:24.346Z,5.53
2022-10-09T06:06:51.166Z,5.52
2022-10-09T06:09:19.917Z,5.47
2022-10-09T06:11:46.580Z,5.43
2022-10-09T06:14:13.340Z,5.54
2022-10-09T06:16:42.448Z,5.59
2022-10-09T06:19:12.525Z,5.57
2022-10-09T06:21:39.170Z,5.59
2022-10-09T06:24:06.371Z,5.60
2022-10-09T06:26:33.715Z,5.62
2022-10-09T06:29:02.120Z,5.72
2022-10-09T06:31:31.136Z,5.64
2022-10-09T06:34:01.914Z,5.65
2022-10-09T06:36:32.289Z,5.69
2022-10-09T06:39:00.654Z,5.64
2022-10-09T06:41:28.892Z,5.64
2022-10-09T06:43:57.386Z,5.63
2022-10-09T06:46:27.651Z,5.53
2022-10-09T06:48:54.436Z,5.57
2022-10-09T06:51:22.860Z,5.63
2022-10-09T06:53:54.976Z,5.53
2022-10-09T06:56:24.028Z,5.52
2022-10-09T06:58:50.787Z,5.55
2022-10-09T07:01:26.340Z,5.61
2022-10-09T07:04:17.745Z,5.59
2022-10-09T07:06:45.592Z,5.63
2022-10-09T07:09:13.171Z,5.66
2022-10-09T07:11:42.760Z,5.69
2022-10-09T07:14:10.383Z,5.72
2022-10-09T07:16:42.297Z,5.77
2022-10-09T07:19:10.043Z,5.79
2022-10-09T07:21:38.090Z,5.81
2022-10-09T07:24:06.236Z,5.81
2022-10-09T07:26:36.092Z,5.85
2022-10-09T07:29:03.517Z,5.89
2022-10-09T07:31:30.057Z,5.91
2022-10-09T07:33:57.256Z,6.01
2022-10-09T07:36:24.296Z,6.02
2022-10-09T07:38:56.460Z,6.09
2022-10-09T07:41:25.017Z,6.11
2022-10-09T07:43:51.729Z,6.18
2022-10-09T07:46:22.259Z,6.26
2022-10-09T07:48:49.768Z,6.36
2022-10-09T07:51:34.506Z,6.39
2022-10-09T07:54:01.532Z,6.44
2022-10-09T07:56:30.684Z,6.48
2022-10-09T07:58:59.722Z,6.51
2022-10-09T08:01:27.657Z,6.58
2022-10-09T08:03:54.634Z,6.66
2022-10-09T08:06:20.997Z,6.60
2022-10-09T08:08:52.486Z,6.71
2022-10-09T08:11:20.276Z,6.73
2022-10-09T08:13:47.930Z,6.69
2022-10-09T08:16:15.002Z,6.81
2022-10-09T08:18:41.401Z,6.85
2022-10-09T08:21:11.659Z,6.95
2022-10-09T08:23:38.337Z,7.01
2022-10-09T08:26:11.685Z,6.99
2022-10-09T08:28:38.028Z,7.01
2022-10-09T08:31:12.917Z,7.16
2022-10-09T08:33:39.740Z,7.23
2022-10-09T08:36:07.878Z,7.32
2022-10-09T08:38:47.121Z,7.46
2022-10-09T08:41:33.385Z,7.59
2022-10-09T08:44:13.654Z,7.76
2022-10-09T08:46:46.593Z,7.82
2022-10-09T08:49:41.191Z,8.10
2022-10-09T08:52:15.195Z,8.25
2022-10-09T08:54:41.578Z,8.25
2022-10-09T08:57:14.632Z,8.30
2022-10-09T08:59:41.723Z,8.41
2022-10-09T09:02:48.031Z,8.54
2022-10-09T09:05:33.197Z,8.59
2022-10-09T09:08:29.735Z,8.52
2022-10-09T09:11:21.597Z,8.60
2022-10-09T09:14:00.830Z,8.67
2022-10-09T09:16:49.049Z,8.85
2022-10-09T09:19:27.898Z,8.96
2022-10-09T09:21:54.236Z,9.20
2022-10-09T09:24:27.915Z,9.91
2022-10-09T09:26:56.245Z,10.68
2022-10-09T09:29:24.301Z,11.36
2022-10-09T09:31:57.199Z,11.71
2022-10-09T09:34:39.058Z,11.53
2022-10-09T09:37:05.697Z,11.36
2022-10-09T09:40:30.951Z,11.46
2022-10-09T09:42:21.560Z,11.27
2022-10-09T09:44:57.394Z,11.52
2022-10-09T09:47:35.841Z,11.41
2022-10-09T09:50:05.034Z,11.34
2022-10-09T09:52:39.768Z,11.28
2022-10-09T09:55:07.176Z,11.32
2022-10-09T09:57:42.212Z,11.42
2022-10-09T10:00:21.988Z,11.40
2022-10-09T10:02:49.566Z,11.52
2022-10-09T10:05:26.692Z,11.60
2022-10-09T10:07:54.565Z,11.58
2022-10-09T10:10:26.412Z,11.75
2022-10-09T10:12:53.100Z,11.90
2022-10-09T10:15:27.171Z,12.06
2022-10-09T10:18:12.816Z,12.22
2022-10-09T10:20:48.407Z,12.37
2022-10-09T10:23:40.795Z,12.58
2022-10-09T10:26:22.808Z,12.92
2022-10-09T10:28:56.686Z,13.13
2022-10-09T10:31:53.941Z,13.30
2022-10-09T10:34:25.081Z,13.50
2022-10-09T10:37:02.631Z,13.66
2022-10-09T10:39:39.830Z,13.86
2022-10-09T10:42:14.647Z,13.98
2022-10-09T10:44:52.030Z,14.00
2022-10-09T10:47:23.880Z,14.19
2022-10-09T10:49:50.728Z,14.28
2022-10-09T10:52:41.315Z,14.35
2022-10-09T10:55:29.341Z,14.47
2022-10-09T10:58:09.455Z,14.83
2022-10-09T11:00:41.400Z,14.79
2022-10-09T11:03:37.346Z,14.75
2022-10-09T11:06:14.306Z,14.87
2022-10-09T11:08:46.637Z,14.93
2022-10-09T11:12:02.394Z,15.10
2022-10-09T11:14:37.148Z,15.10
2022-10-09T11:17:55.045Z,15.20
2022-10-09T11:20:43.028Z,15.37
2022-10-09T11:23:37.215Z,15.46
2022-10-09T11:26:41.338Z,15.57
2022-10-09T11:29:20.374Z,15.57
2022-10-09T11:31:55.572Z,15.67
2022-10-09T11:34:37.534Z,15.68
2022-10-09T11:37:08.929Z,15.89
2022-10-09T11:39:37.418Z,15.87
2022-10-09T11:42:05.893Z,15.88
2022-10-09T11:45:00.888Z,16.09
2022-10-09T11:47:33.348Z,16.13
2022-10-09T11:50:18.320Z,16.03
2022-10-09T11:53:05.588Z,16.21
2022-10-09T11:55:34.040Z,16.26
2022-10-09T11:58:18.845Z,16.45
2022-10-09T12:00:48.221Z,16.46
2022-10-09T12:03:35.926Z,16.39
2022-10-09T12:06:15.211Z,16.53
2022-10-09T12:08:53.129Z,16.65
2022-10-09T12:11:20.111Z,16.55
2022-10-09T12:13:54.783Z,16.74
2022-10-09T12:16:54.269Z,16.58
2022-10-09T12:19:36.346Z,16.55
2022-10-09T12:22:07.811Z,16.87
2022-10-09T12:24:41.247Z,16.86
2022-10-09T12:27:08.738Z,16.72
2022-10-09T12:29:46.099Z,16.59
2022-10-09T12:32:18.290Z,16.58
2022-10-09T12:34:49.969Z,16.80
2022-10-09T12:37:22.450Z,16.89
2022-10-09T12:39:49.949Z,17.04
2022-10-09T12:42:23.206Z,17.13
2022-10-09T12:44:55.035Z,16.85
2022-10-09T12:47:27.472Z,16.74
2022-10-09T12:49:55.462Z,16.80
2022-10-09T12:52:21.839Z,16.70
2022-10-09T12:54:48.256Z,16.82
2022-10-09T12:57:16.425Z,16.80
2022-10-09T12:59:45.854Z,16.81
2022-10-09T13:02:14.111Z,16.79
2022-10-09T13:04:40.684Z,16.73
2022-10-09T13:07:18.391Z,16.73
2022-10-09T13:09:45.024Z,16.71
2022-10-09T13:12:14.329Z,16.82
2022-10-09T13:15:05.201Z,16.83
2022-10-09T13:17:34.198Z,17.09
2022-10-09T13:20:12.800Z,17.04
2022-10-09T13:22:39.820Z,16.95
2022-10-09T13:25:06.979Z,16.81
2022-10-09T13:27:37.400Z,16.82
2022-10-09T13:30:05.348Z,16.85
2022-10-09T13:32:31.753Z,16.85
2022-10-09T13:34:58.319Z,17.10
2022-10-09T13:37:26.607Z,17.36
2022-10-09T13:39:54.770Z,17.23
2022-10-09T13:42:23.228Z,17.01
2022-10-09T13:44:49.564Z,17.06
2022-10-09T13:47:19.633Z,17.04
2022-10-09T13:49:50.169Z,16.99
2022-10-09T13:52:16.662Z,16.97
2022-10-09T13:54:43.076Z,17.05
2022-10-09T13:57:09.765Z,17.18
2022-10-09T13:59:36.364Z,17.15
2022-10-09T14:02:03.286Z,17.13
2022-10-09T14:04:30.051Z,17.05
2022-10-09T14:06:56.419Z,17.14
2022-10-09T14:09:23.297Z,17.06
2022-10-09T14:11:49.638Z,17.02
2022-10-09T14:14:16.322Z,17.16
2022-10-09T14:16:42.961Z,17.39
2022-10-09T14:19:09.807Z,17.21
2022-10-09T14:21:36.123Z,17.19
2022-10-09T14:24:03.520Z,17.19
2022-10-09T14:26:30.397Z,17.15
2022-10-09T14:29:00.463Z,17.24
2022-10-09T14:31:27.407Z,17.16
2022-10-09T14:33:57.082Z,17.39
2022-10-09T14:36:23.604Z,17.40
2022-10-09T14:38:50.028Z,17.21
2022-10-09T14:41:17.285Z,17.18
2022-10-09T14:43:45.910Z,17.19
2022-10-09T14:46:17.248Z,17.30
2022-10-09T14:48:45.524Z,17.17
2022-10-09T14:51:14.262Z,17.15
2022-10-09T14:53:41.186Z,17.14
2022-10-09T14:56:11.188Z,17.18
2022-10-09T14:58:38.804Z,17.14
2022-10-09T15:01:06.388Z,17.30
2022-10-09T15:03:34.585Z,17.27
2022-10-09T15:06:05.174Z,17.30
2022-10-09T15:08:33.184Z,17.29
2022-10-09T15:11:00.142Z,17.32
2022-10-09T15:13:26.593Z,17.50
2022-10-09T15:15:58.906Z,17.56
2022-10-09T15:18:26.010Z,17.90
2022-10-09T15:20:52.448Z,18.58
2022-10-09T15:23:19.371Z,19.41
2022-10-09T15:25:53.274Z,19.85
2022-10-09T15:28:20.142Z,20.22
2022-10-09T15:30:51.421Z,20.08
2022-10-09T15:33:18.247Z,19.67
2022-10-09T15:35:45.064Z,19.29
2022-10-09T15:38:15.536Z,18.93
2022-10-09T15:40:45.218Z,18.61
2022-10-09T15:43:17.228Z,18.19
2022-10-09T15:45:43.885Z,17.88
2022-10-09T15:48:18.544Z,17.68
2022-10-09T15:50:45.914Z,17.40
2022-10-09T15:53:13.631Z,17.25
2022-10-09T15:55:41.003Z,17.13
2022-10-09T15:58:07.396Z,17.06
2022-10-09T16:00:38.948Z,16.90
2022-10-09T16:03:06.280Z,16.77
2022-10-09T16:05:43.834Z,16.59
2022-10-09T16:08:11.446Z,16.47
2022-10-09T16:10:48.795Z,16.39
2022-10-09T16:13:16.174Z,16.29
2022-10-09T16:15:44.115Z,16.28
2022-10-09T16:18:10.876Z,16.21
2022-10-09T16:20:38.244Z,16.07
2022-10-09T16:23:05.496Z,15.90
2022-10-09T16:25:32.303Z,15.77
2022-10-09T16:27:58.759Z,15.70
2022-10-09T16:30:25.792Z,15.53
2022-10-09T16:32:52.825Z,15.43
2022-10-09T16:35:19.663Z,15.35
2022-10-09T16:37:46.083Z,15.28
2022-10-09T16:40:12.929Z,15.13
2022-10-09T16:42:39.534Z,15.08
2022-10-09T16:45:06.953Z,14.92
2022-10-09T16:47:33.266Z,14.81
2022-10-09T16:49:59.968Z,14.72
2022-10-09T16:52:26.360Z,14.59
2022-10-09T16:54:55.879Z,14.41
2022-10-09T16:57:23.410Z,14.22
2022-10-09T16:59:49.897Z,14.09
2022-10-09T17:02:16.743Z,14.04
2022-10-09T17:04:43.095Z,13.92
2022-10-09T17:07:10.962Z,13.83
2022-10-09T17:09:37.988Z,13.61
2022-10-09T17:12:05.206Z,13.52
2022-10-09T17:14:31.562Z,13.42
2022-10-09T17:16:57.890Z,13.29
2022-10-09T17:19:24.932Z,13.18
2022-10-09T17:21:51.284Z,13.07
2022-10-09T17:24:18.142Z,12.95
2022-10-09T17:26:44.517Z,12.85
2022-10-09T17:29:12.963Z,12.74
2022-10-09T17:31:39.881Z,12.63
2022-10-09T17:34:06.250Z,12.56
2022-10-09T17:36:38.517Z,12.43
2022-10-09T17:39:07.696Z,12.28
2022-10-09T17:41:34.398Z,12.21
2022-10-09T17:44:01.261Z,12.11
2022-10-09T17:46:29.224Z,11.98
2022-10-09T17:48:55.845Z,11.80
2022-10-09T17:51:25.859Z,11.81
2022-10-09T17:53:53.480Z,11.71
2022-10-09T17:56:19.934Z,11.62
2022-10-09T17:58:46.248Z,11.56
2022-10-09T18:01:13.808Z,11.50
2022-10-09T18:03:41.320Z,11.41
2022-10-09T18:06:11.296Z,11.36
2022-10-09T18:08:38.088Z,11.30
2022-10-09T18:11:07.867Z,11.24
2022-10-09T18:13:37.822Z,11.20
2022-10-09T18:16:06.642Z,11.16
2022-10-09T18:18:33.299Z,11.10
2022-10-09T18:21:08.787Z,11.03
2022-10-09T18:23:35.119Z,10.98
2022-10-09T18:26:06.118Z,10.92
2022-10-09T18:28:32.479Z,10.87
2022-10-09T18:30:59.122Z,10.82
2022-10-09T18:33:25.572Z,10.76
2022-10-09T18:35:51.881Z,10.71
2022-10-09T18:38:18.284Z,10.63
2022-10-09T18:40:45.790Z,10.60
2022-10-09T18:43:12.440Z,10.59
2022-10-09T18:45:43.771Z,10.40
2022-10-09T18:48:10.173Z,10.41
2022-10-09T18:50:37.633Z,10.32
2022-10-09T18:53:04.472Z,10.25
2022-10-09T18:55:31.337Z,10.18
2022-10-09T18:57:58.399Z,10.13
2022-10-09T19:00:25.479Z,10.09
2022-10-09T19:02:51.763Z,10.05
2022-10-09T19:05:18.352Z,9.98
2022-10-09T19:07:44.758Z,9.92
2022-10-09T19:10:11.152Z,9.85
2022-10-09T19:12:37.456Z,9.80
2022-10-09T19:15:06.168Z,9.74
2022-10-09T19:17:36.006Z,9.76
2022-10-09T19:20:02.351Z,9.69
2022-10-09T19:22:29.028Z,9.69
2022-10-09T19:24:55.402Z,9.67
2022-10-09T19:27:26.354Z,9.61
2022-10-09T19:29:53.094Z,9.56
2022-10-09T19:32:23.596Z,9.52
2022-10-09T19:34:50.389Z,9.50
2022-10-09T19:37:16.807Z,9.44
2022-10-09T19:39:43.132Z,9.41
2022-10-09T19:42:09.546Z,9.36
2022-10-09T19:44:35.883Z,9.32
2022-10-09T19:47:02.195Z,9.31
2022-10-09T19:49:28.622Z,9.33
2022-10-09T19:51:55.571Z,9.27
2022-10-09T19:54:21.867Z,9.23
2022-10-09T19:56:48.179Z,9.16
2022-10-09T19:59:14.593Z,9.12
2022-10-09T20:01:41.021Z,9.06
2022-10-09T20:04:09.942Z,9.12
2022-10-09T20:06:38.548Z,9.09
2022-10-09T20:09:06.545Z,8.95
2022-10-09T20:11:33.201Z,8.94
2022-10-09T20:13:59.746Z,8.95
2022-10-09T20:16:26.621Z,8.90
2022-10-09T20:18:54.766Z,8.87
2022-10-09T20:21:21.511Z,8.80
2022-10-09T20:23:47.871Z,8.83
2022-10-09T20:26:20.686Z,8.75
2022-10-09T20:28:48.098Z,8.70
2022-10-09T20:31:17.904Z,8.67
2022-10-09T20:33:45.976Z,8.62
2022-10-09T20:36:20.293Z,8.61
2022-10-09T20:38:47.236Z,8.57
2022-10-09T20:41:15.344Z,8.53
2022-10-09T20:43:42.224Z,8.51
2022-10-09T20:46:10.595Z,8.51
2022-10-09T20:48:37.084Z,8.49
2022-10-09T20:51:03.891Z,8.51
2022-10-09T20:53:30.694Z,8.53
2022-10-09T20:56:02.095Z,8.50
2022-10-09T20:58:29.133Z,8.46
2022-10-09T21:00:55.637Z,8.47
2022-10-09T21:03:22.396Z,8.48
2022-10-09T21:05:49.226Z,8.48
2022-10-09T21:08:15.675Z,8.45
2022-10-09T21:10:46.599Z,8.48
2022-10-09T21:13:13.612Z,8.46
2022-10-09T21:15:45.093Z,8.42
2022-10-09T21:18:12.431Z,8.31
2022-10-09T21:20:40.630Z,8.22
2022-10-09T21:23:07.742Z,8.31
2022-10-09T21:25:34.516Z,8.29
2022-10-09T21:28:01.426Z,8.29
2022-10-09T21:30:28.591Z,8.30
2022-10-09T21:32:55.937Z,8.22
2022-10-09T21:35:23.548Z,8.19
2022-10-09T21:37:50.645Z,8.21
2022-10-09T21:40:17.885Z,8.20
2022-10-09T21:42:44.450Z,8.16
2022-10-09T21:45:10.984Z,8.12
2022-10-09T21:47:37.300Z,8.01
2022-10-09T21:50:04.008Z,8.04
2022-10-09T21:52:30.366Z,8.03
2022-10-09T21:54:56.742Z,7.94
2022-10-09T21:57:23.031Z,8.01
2022-10-09T21:59:49.432Z,7.97
2022-10-09T22:02:15.750Z,7.88
2022-10-09T22:04:42.159Z,7.76
2022-10-09T22:07:08.581Z,7.75
2022-10-09T22:09:34.985Z,7.68
2022-10-09T22:12:01.272Z,7.62
2022-10-09T22:14:27.579Z,7.55
2022-10-09T22:16:53.972Z,7.54
2022-10-09T22:19:20.416Z,7.46
2022-10-09T22:21:48.273Z,7.41
2022-10-09T22:24:14.599Z,7.48
2022-10-09T22:26:41.104Z,7.32
2022-10-09T22:29:07.768Z,7.27
2022-10-09T22:31:34.158Z,7.20
2022-10-09T22:34:02.279Z,7.18
2022-10-09T22:36:31.818Z,7.15
2022-10-09T22:39:00.340Z,7.10
2022-10-09T22:41:28.116Z,7.05
2022-10-09T22:43:57.186Z,6.98
2022-10-09T22:46:32.535Z,6.92
2022-10-09T22:48:59.399Z,6.88
2022-10-09T22:51:27.656Z,6.76
2022-10-09T22:53:55.624Z,6.83
2022-10-09T22:56:24.700Z,6.78
2022-10-09T22:58:53.078Z,6.69
2022-10-09T23:01:29.933Z,6.67
2022-10-09T23:04:01.959Z,6.67
2022-10-09T23:06:28.657Z,6.62
2022-10-09T23:08:55.665Z,6.59
2022-10-09T23:11:23.218Z,6.55
2022-10-09T23:13:54.792Z,6.52
2022-10-09T23:16:21.939Z,6.49
2022-10-09T23:18:48.539Z,6.54
2022-10-09T23:21:18.133Z,6.53
2022-10-09T23:23:45.919Z,6.45
2022-10-09T23:26:27.523Z,6.51
2022-10-09T23:28:59.645Z,6.48
2022-10-09T23:31:26.873Z,6.37
2022-10-09T23:33:54.136Z,6.32
2022-10-09T23:36:23.011Z,6.24
2022-10-09T23:38:49.864Z,6.15
2022-10-09T23:41:23.495Z,6.21
2022-10-09T23:43:50.786Z,6.14
2022-10-09T23:46:20.479Z,6.18
2022-10-09T23:48:48.106Z,6.15
2022-10-09T23:51:15.193Z,6.08
2022-10-09T23:53:42.510Z,6.07
2022-10-09T23:56:14.707Z,6.11
2022-10-09T23:58:41.016Z,6.01
